Time;durP1;ratioP1;P1;durP2;ratioP2;P2;SDS_P1;SDS_P2;PMS_P1;PMS_P2;Temp;Humidity;BMP_temperature;BMP_pressure;BME280_temperature;BME280_humidity;BME280_pressure;Samples;Min_cycle;Max_cycle;Signal;HPM_P1;HPM_P2
2022/01/22 00:01:38;;;;;;;24.45;2.55;;;9.50;97.00;;;;;;5100053;28;20051;-67
2022/01/22 00:04:04;;;;;;;14.27;2.70;;;9.50;97.00;;;;;;5105496;28;20031;-67
2022/01/22 00:06:30;;;;;;;17.58;2.40;;;9.60;97.10;;;;;;5093308;28;20442;-67
2022/01/22 00:08:56;;;;;;;19.67;1.90;;;9.60;97.00;;;;;;5093700;28;20070;-67
2022/01/22 00:11:21;;;;;;;8.77;1.77;;;9.60;96.90;;;;;;5086509;28;20028;-67
2022/01/22 00:16:31;;;;;;;7.07;1.92;;;9.60;96.90;;;;;;5085575;28;20039;-67
2022/01/22 00:18:57;;;;;;;8.05;1.50;;;9.60;96.80;;;;;;5087985;28;20079;-67
2022/01/22 00:21:23;;;;;;;7.40;1.17;;;9.60;96.80;;;;;;5085814;28;20042;-67
2022/01/22 00:23:55;;;;;;;5.57;1.17;;;9.60;96.90;;;;;;5106325;28;20119;-67
2022/01/22 00:26:22;;;;;;;9.60;1.17;;;9.60;96.90;;;;;;5092847;28;20383;-67
2022/01/22 00:28:48;;;;;;;7.03;0.88;;;9.60;96.90;;;;;;5105688;28;20539;-67
2022/01/22 00:31:13;;;;;;;4.13;1.38;;;9.60;97.00;;;;;;5083325;28;20029;-67
2022/01/22 00:33:39;;;;;;;8.07;1.40;;;9.60;97.00;;;;;;5104393;28;20043;-67
2022/01/22 00:36:05;;;;;;;2.65;0.93;;;9.60;97.00;;;;;;5080866;28;20032;-67
2022/01/22 00:38:30;;;;;;;5.78;1.45;;;9.70;97.00;;;;;;5083987;28;20028;-67
2022/01/22 00:40:56;;;;;;;2.20;0.93;;;9.60;97.00;;;;;;5086698;28;20125;-67
2022/01/22 00:43:22;;;;;;;5.18;1.30;;;9.60;96.90;;;;;;5091024;28;20092;-67
2022/01/22 00:45:48;;;;;;;11.57;1.83;;;9.60;96.90;;;;;;5093851;28;20536;-67
2022/01/22 00:48:14;;;;;;;10.98;1.33;;;9.70;97.00;;;;;;5091448;28;20032;-67
2022/01/22 00:50:39;;;;;;;6.35;1.20;;;9.60;97.00;;;;;;5092176;28;20044;-67
2022/01/22 00:53:05;;;;;;;10.02;1.70;;;9.60;96.90;;;;;;5092103;28;20550;-67
2022/01/22 00:55:31;;;;;;;8.63;1.30;;;9.60;97.00;;;;;;5092316;28;20112;-67
2022/01/22 00:57:56;;;;;;;11.07;1.70;;;9.60;97.00;;;;;;5092467;28;20040;-67
2022/01/22 01:00:22;;;;;;;7.93;1.38;;;9.60;97.00;;;;;;5091633;28;20034;-67
2022/01/22 01:02:48;;;;;;;6.25;1.48;;;9.70;96.90;;;;;;5092655;28;20048;-67
2022/01/22 01:05:15;;;;;;;18.75;2.63;;;9.70;97.00;;;;;;5104501;28;20530;-67
2022/01/22 01:07:41;;;;;;;9.75;1.27;;;9.70;97.00;;;;;;5090697;28;20063;-67
2022/01/22 01:10:09;;;;;;;22.45;1.85;;;9.60;96.90;;;;;;5081258;28;20479;-67
2022/01/22 01:12:38;;;;;;;7.82;1.63;;;9.60;96.90;;;;;;5075950;28;20044;-67
2022/01/22 01:33:59;;;;;;;12.43;1.75;;;9.60;96.70;;;;;;5090636;28;20044;-67
2022/01/22 01:36:25;;;;;;;19.40;3.08;;;9.60;96.70;;;;;;5090189;28;20479;-67
2022/01/22 01:38:56;;;;;;;6.25;1.00;;;9.60;96.70;;;;;;5080886;28;20127;-67
2022/01/22 01:42:07;;;;;;;7.45;1.75;;;9.60;96.70;;;;;;5090911;28;20384;-67
2022/01/22 01:44:12;;;;;;;12.40;1.92;;;9.60;96.70;;;;;;5087915;28;20047;-67
2022/01/22 01:47:00;;;;;;;12.35;1.30;;;9.60;96.70;;;;;;5079876;28;20552;-67
2022/01/22 01:49:29;;;;;;;8.95;1.25;;;9.60;96.70;;;;;;5105491;28;20069;-67
2022/01/22 01:51:58;;;;;;;18.13;2.42;;;9.60;96.70;;;;;;5101845;28;20142;-67
2022/01/22 01:54:38;;;;;;;18.92;1.60;;;9.60;96.70;;;;;;5090425;28;20020;-67
2022/01/22 01:57:32;;;;;;;5.35;1.40;;;9.60;96.70;;;;;;5092491;28;20480;-67
2022/01/22 01:59:59;;;;;;;;;;;9.60;96.60;;;;;;5096384;28;20024;-67
2022/01/22 02:02:42;;;;;;;9.93;1.90;;;9.60;96.50;;;;;;5083709;28;19960;-67
2022/01/22 02:05:11;;;;;;;7.00;1.20;;;9.60;96.40;;;;;;5093846;28;20124;-67
2022/01/22 02:07:42;;;;;;;2.40;0.85;;;9.60;96.40;;;;;;5095540;28;20161;-67
2022/01/22 02:10:17;;;;;;;15.57;1.65;;;9.60;96.40;;;;;;5093102;28;20049;-67
2022/01/22 02:23:45;;;;;;;8.55;1.05;;;9.60;96.30;;;;;;5107451;28;20505;-67
2022/01/22 02:26:13;;;;;;;5.47;1.20;;;9.60;96.30;;;;;;5093481;28;20475;-67
2022/01/22 02:28:48;;;;;;;10.85;1.52;;;9.60;96.30;;;;;;5093864;28;20031;-67
2022/01/22 02:31:24;;;;;;;10.60;1.00;;;9.60;96.30;;;;;;5081377;28;20165;-67
2022/01/22 02:34:21;;;;;;;7.45;1.58;;;9.60;96.30;;;;;;5082389;28;20039;-67
2022/01/22 02:37:09;;;;;;;5.45;1.50;;;9.60;96.30;;;;;;5098579;28;20428;-67
2022/01/22 02:39:40;;;;;;;11.82;1.80;;;9.60;96.30;;;;;;5093534;28;20028;-67
2022/01/22 02:42:07;;;;;;;7.18;1.20;;;9.60;96.20;;;;;;5094133;28;20031;-67
2022/01/22 02:44:44;;;;;;;6.82;1.48;;;9.60;96.20;;;;;;5096639;28;20034;-67
2022/01/22 02:47:14;;;;;;;8.82;1.45;;;9.70;96.30;;;;;;5101831;28;20031;-67
2022/01/22 02:49:40;;;;;;;2.97;1.65;;;9.70;96.20;;;;;;5093309;28;20024;-67
2022/01/22 02:52:10;;;;;;;8.05;1.05;;;9.70;96.20;;;;;;5092855;28;20391;-67
2022/01/22 02:54:39;;;;;;;9.07;1.70;;;9.60;96.20;;;;;;5080321;28;20125;-67
2022/01/22 02:57:08;;;;;;;9.63;1.95;;;9.60;96.20;;;;;;5094515;28;20390;-67
2022/01/22 02:59:34;;;;;;;6.85;1.33;;;9.70;96.20;;;;;;5092656;28;20035;-67
2022/01/22 03:02:03;;;;;;;6.70;1.15;;;9.70;96.20;;;;;;5081606;28;20030;-67
2022/01/22 03:04:28;;;;;;;5.35;0.75;;;9.70;96.20;;;;;;5093366;28;20024;-67
2022/01/22 03:06:54;;;;;;;6.10;1.25;;;9.70;96.10;;;;;;5092307;28;20445;-67
2022/01/22 03:09:27;;;;;;;3.60;0.90;;;9.70;96.10;;;;;;5080892;28;20025;-67
2022/01/22 03:22:26;;;;;;;7.07;1.60;;;9.80;95.90;;;;;;5092139;28;20388;-67
2022/01/22 03:27:39;;;;;;;5.78;1.13;;;9.80;95.90;;;;;;5080797;28;20020;-67
2022/01/22 03:30:06;;;;;;;10.65;1.48;;;9.80;95.80;;;;;;5090103;28;20028;-67
2022/01/22 03:32:39;;;;;;;11.98;1.85;;;9.70;95.90;;;;;;5082415;28;20036;-67
2022/01/22 03:37:41;;;;;;;16.08;1.67;;;9.70;95.80;;;;;;5094205;28;20038;-67
2022/01/22 03:40:09;;;;;;;6.47;1.40;;;9.70;95.80;;;;;;5111796;28;20024;-67
2022/01/22 03:42:35;;;;;;;10.98;1.27;;;9.70;95.80;;;;;;5090886;28;20140;-67
2022/01/22 03:45:03;;;;;;;7.22;1.58;;;9.70;95.80;;;;;;5080125;28;20511;-67
2022/01/22 03:47:30;;;;;;;10.43;1.40;;;9.70;95.90;;;;;;5096203;28;20093;-67
2022/01/22 03:49:57;;;;;;;12.63;1.58;;;9.70;95.90;;;;;;5092003;28;20073;-67
2022/01/22 03:52:24;;;;;;;9.25;1.67;;;9.70;95.90;;;;;;5082698;28;20463;-67
2022/01/22 03:54:50;;;;;;;7.55;1.67;;;9.70;95.90;;;;;;5092481;28;20106;-67
2022/01/22 03:57:36;;;;;;;8.95;1.17;;;9.70;95.90;;;;;;5090158;28;20035;-67
2022/01/22 04:00:04;;;;;;;4.18;0.98;;;9.70;95.90;;;;;;5091548;28;20559;-67
2022/01/22 04:05:25;;;;;;;6.93;1.45;;;9.70;95.90;;;;;;5079284;28;20051;-67
2022/01/22 04:10:20;;;;;;;4.38;1.27;;;9.70;95.90;;;;;;5092743;28;20494;-67
2022/01/22 04:12:51;;;;;;;1.15;0.70;;;9.70;95.90;;;;;;5093068;28;20043;-66
2022/01/22 04:15:21;;;;;;;2.00;0.73;;;9.70;96.00;;;;;;5085811;28;20028;-67
2022/01/22 04:25:53;;;;;;;7.45;1.40;;;9.70;95.90;;;;;;5090966;28;20166;-67
2022/01/22 04:28:19;;;;;;;3.92;1.27;;;9.70;95.90;;;;;;5093182;28;20074;-67
2022/01/22 04:30:46;;;;;;;3.60;1.50;;;9.70;95.90;;;;;;5092506;28;20538;-67
2022/01/22 04:33:12;;;;;;;4.97;1.00;;;9.70;95.90;;;;;;5092452;28;20501;-67
2022/01/22 04:35:37;;;;;;;6.65;1.02;;;9.70;95.90;;;;;;5092340;28;20024;-67
2022/01/22 04:38:04;;;;;;;8.77;1.42;;;9.70;95.90;;;;;;5091875;28;20467;-67
2022/01/22 04:40:30;;;;;;;10.18;1.17;;;9.70;95.90;;;;;;5091676;28;20112;-67
2022/01/22 04:42:56;;;;;;;17.15;1.45;;;9.70;95.90;;;;;;5091334;28;20036;-67
2022/01/22 04:45:52;;;;;;;3.67;0.80;;;9.70;95.90;;;;;;5101593;28;20111;-67
2022/01/22 04:56:32;;;;;;;9.98;1.48;;;9.70;95.90;;;;;;5079519;28;20020;-67
2022/01/22 04:58:57;;;;;;;6.82;1.17;;;9.70;95.90;;;;;;5089214;28;20124;-67
2022/01/22 05:01:23;;;;;;;8.77;1.52;;;9.70;96.00;;;;;;5080111;28;20122;-67
2022/01/22 05:04:07;;;;;;;8.43;0.90;;;9.70;96.00;;;;;;5079942;28;20134;-67
2022/01/22 05:07:04;;;;;;;4.63;1.38;;;9.60;95.90;;;;;;5094441;28;20020;-67
2022/01/22 05:10:11;;;;;;;8.10;0.85;;;9.70;95.90;;;;;;5036758;28;20124;-67
2022/01/22 05:12:37;;;;;;;10.70;1.23;;;9.70;95.90;;;;;;5041217;28;20080;-66
2022/01/22 05:15:05;;;;;;;5.05;1.00;;;9.60;95.90;;;;;;5042629;28;20488;-67
2022/01/22 05:17:34;;;;;;;6.82;1.00;;;9.70;96.00;;;;;;5087104;28;20115;-67
2022/01/22 05:20:15;;;;;;;4.97;1.10;;;9.70;96.00;;;;;;5070355;28;20507;-67
2022/01/22 05:25:20;;;;;;;12.65;1.50;;;9.60;96.00;;;;;;5101120;28;20035;-67
2022/01/22 05:30:52;;;;;;;16.92;1.48;;;9.60;96.10;;;;;;5090732;28;20025;-67
2022/01/22 05:39:10;;;;;;;13.98;2.20;;;9.60;96.10;;;;;;5105364;28;20468;-67
2022/01/22 05:41:40;;;;;;;7.78;1.60;;;9.60;96.10;;;;;;5095399;28;20112;-67
2022/01/22 05:44:06;;;;;;;12.90;1.55;;;9.60;96.10;;;;;;5083922;28;20237;-67
2022/01/22 05:46:34;;;;;;;5.78;1.02;;;9.60;96.10;;;;;;5109125;28;20055;-67
2022/01/22 05:49:02;;;;;;;8.98;1.15;;;9.60;96.20;;;;;;5095373;28;20483;-67
2022/01/22 05:51:28;;;;;;;12.13;1.02;;;9.60;96.10;;;;;;5104060;28;20071;-67
2022/01/22 05:59:38;;;;;;;3.58;0.82;;;9.60;96.10;;;;;;5094497;28;20031;-66
2022/01/22 06:02:08;;;;;;;11.13;1.42;;;9.60;96.00;;;;;;5093740;28;20064;-67
2022/01/22 06:04:34;;;;;;;11.65;1.35;;;9.60;96.10;;;;;;5085144;28;20028;-67
2022/01/22 06:07:05;;;;;;;13.50;1.55;;;9.70;96.10;;;;;;5104482;28;20429;-67
2022/01/22 06:09:33;;;;;;;7.93;1.67;;;9.70;96.10;;;;;;5094027;28;20051;-67
2022/01/22 06:12:16;;;;;;;21.13;1.83;;;9.70;96.20;;;;;;5094179;28;20457;-67
2022/01/22 06:14:47;;;;;;;6.88;1.20;;;9.70;96.10;;;;;;5094158;28;20077;-66
2022/01/22 06:17:13;;;;;;;9.27;1.60;;;9.70;96.10;;;;;;5089070;28;20032;-67
2022/01/22 06:19:59;;;;;;;14.85;3.60;;;9.70;96.10;;;;;;5095219;28;20493;-67
2022/01/22 06:22:25;;;;;;;10.73;1.30;;;9.70;96.10;;;;;;5093817;28;20020;-67
2022/01/22 06:24:52;;;;;;;5.97;1.45;;;9.70;96.10;;;;;;5082531;28;20090;-66
2022/01/22 06:27:18;;;;;;;8.55;1.48;;;9.70;96.10;;;;;;5094628;28;20020;-67
2022/01/22 06:29:44;;;;;;;7.63;1.63;;;9.70;96.10;;;;;;5093190;28;20506;-67
2022/01/22 06:32:12;;;;;;;9.80;2.03;;;9.70;96.10;;;;;;5087351;28;20031;-67
2022/01/22 06:34:37;;;;;;;4.38;1.38;;;9.70;96.10;;;;;;5085686;28;20024;-67
2022/01/22 06:37:03;;;;;;;2.47;1.02;;;9.70;96.00;;;;;;5105797;28;20116;-67
2022/01/22 06:41:44;;;;;;;9.60;1.30;;;9.60;96.00;;;;;;5088866;28;20062;-67
2022/01/22 06:42:59;;;;;;;5.25;1.83;;;9.70;96.00;;;;;;5060664;28;20134;-67
2022/01/22 06:45:35;;;;;;;7.75;1.50;;;9.60;96.00;;;;;;5093182;28;20035;-67
2022/01/22 06:48:08;;;;;;;8.45;1.65;;;9.60;96.10;;;;;;5093399;28;20115;-67
2022/01/22 06:50:46;;;;;;;3.58;1.05;;;9.60;96.00;;;;;;5102807;28;20029;-66
2022/01/22 06:53:12;;;;;;;2.72;0.98;;;9.60;96.00;;;;;;5102488;28;20498;-67
2022/01/22 06:55:50;;;;;;;5.40;1.02;;;9.60;96.10;;;;;;5097619;28;20072;-67
2022/01/22 06:58:16;;;;;;;11.80;2.33;;;9.50;96.10;;;;;;5103572;28;20105;-67
2022/01/22 07:00:51;;;;;;;4.28;1.05;;;9.50;96.10;;;;;;5094998;28;20024;-67
2022/01/22 07:03:26;;;;;;;3.75;0.73;;;9.60;96.10;;;;;;5093479;28;20036;-67
2022/01/22 07:06:12;;;;;;;7.72;1.00;;;9.50;96.00;;;;;;5093667;28;20502;-67
2022/01/22 07:08:40;;;;;;;5.13;1.33;;;9.50;96.00;;;;;;5093023;28;20032;-67
2022/01/22 07:11:08;;;;;;;7.00;2.55;;;9.50;96.00;;;;;;5082622;28;20553;-67
2022/01/22 07:13:39;;;;;;;3.53;0.80;;;9.50;95.90;;;;;;5076704;28;20109;-67
2022/01/22 07:16:05;;;;;;;3.05;0.85;;;9.50;96.20;;;;;;5090527;28;20058;-67
2022/01/22 07:18:32;;;;;;;3.70;1.10;;;9.50;96.00;;;;;;5079110;28;20119;-67
2022/01/22 07:21:03;;;;;;;4.43;0.98;;;9.50;96.00;;;;;;5085567;28;20036;-67
2022/01/22 07:23:56;;;;;;;5.75;1.27;;;9.50;95.90;;;;;;5086951;28;20056;-67
2022/01/22 07:26:27;;;;;;;6.57;1.00;;;9.50;95.90;;;;;;5092501;28;20036;-67
2022/01/22 07:29:13;;;;;;;9.50;1.40;;;9.50;95.90;;;;;;5105212;28;20040;-67
2022/01/22 07:31:40;;;;;;;7.25;1.65;;;9.50;95.90;;;;;;5111126;28;20424;-67
2022/01/22 07:34:07;;;;;;;9.45;1.40;;;9.50;95.90;;;;;;5104641;28;20035;-67
2022/01/22 07:36:33;;;;;;;9.15;1.20;;;9.50;95.90;;;;;;5111248;28;20045;-67
2022/01/22 07:38:59;;;;;;;5.60;1.80;;;9.50;95.90;;;;;;5110223;28;20038;-67
2022/01/22 07:41:25;;;;;;;5.80;1.10;;;9.50;95.80;;;;;;5108981;28;20019;-68
2022/01/22 07:44:16;;;;;;;9.85;1.10;;;9.50;95.80;;;;;;5110112;28;20035;-68
2022/01/22 07:46:47;;;;;;;9.40;1.70;;;9.50;95.90;;;;;;5110091;28;20470;-67
2022/01/22 07:49:20;;;;;;;2.45;0.68;;;9.50;95.80;;;;;;5105850;28;20028;-69
2022/01/22 07:51:49;;;;;;;6.80;1.23;;;9.50;95.90;;;;;;5104798;28;20177;-67
2022/01/22 07:54:15;;;;;;;9.15;1.13;;;9.50;95.80;;;;;;5105779;28;20027;-68
2022/01/22 07:56:41;;;;;;;9.23;1.60;;;9.50;95.80;;;;;;5106899;28;20023;-69
2022/01/22 07:59:08;;;;;;;6.45;1.42;;;9.50;95.80;;;;;;5104169;28;20019;-67
2022/01/22 08:01:40;;;;;;;7.38;1.25;;;9.50;95.80;;;;;;5099011;28;20026;-66
2022/01/22 08:04:29;;;;;;;4.95;1.00;;;9.50;95.80;;;;;;5088970;28;20034;-67
2022/01/22 08:06:59;;;;;;;10.85;1.27;;;9.50;95.80;;;;;;5104322;28;20482;-67
2022/01/22 08:09:25;;;;;;;6.65;1.42;;;9.50;95.80;;;;;;5100883;28;20448;-68
2022/01/22 08:11:59;;;;;;;4.22;1.13;;;9.50;95.80;;;;;;5096916;28;20107;-68
2022/01/22 08:14:25;;;;;;;4.68;1.42;;;9.50;95.80;;;;;;5098353;28;20027;-68
2022/01/22 08:16:51;;;;;;;6.95;1.30;;;9.50;95.80;;;;;;5093337;28;20367;-68
2022/01/22 08:19:19;;;;;;;5.50;1.50;;;9.60;95.80;;;;;;5096558;28;20101;-68
2022/01/22 08:21:47;;;;;;;4.72;1.13;;;9.50;95.70;;;;;;5106612;28;20115;-68
2022/01/22 08:24:50;;;;;;;10.38;1.48;;;9.60;95.70;;;;;;5021928;28;20061;-68
2022/01/22 08:27:41;;;;;;;4.68;0.60;;;9.50;95.60;;;;;;5081026;28;20034;-68
2022/01/22 08:30:08;;;;;;;3.78;0.63;;;9.50;95.60;;;;;;5103055;28;20506;-68
2022/01/22 08:37:51;;;;;;;4.72;1.30;;;9.50;95.60;;;;;;5104689;28;20509;-69
2022/01/22 08:40:17;;;;;;;4.10;0.93;;;9.50;95.60;;;;;;5101542;28;20055;-67
2022/01/22 08:42:45;;;;;;;7.18;1.20;;;9.60;95.60;;;;;;5089293;28;20422;-67
2022/01/22 08:45:12;;;;;;;7.57;1.13;;;9.60;95.60;;;;;;5105941;28;20039;-67
2022/01/22 08:47:40;;;;;;;2.67;0.90;;;9.60;95.60;;;;;;5108444;28;20024;-68
2022/01/22 08:50:06;;;;;;;6.10;1.05;;;9.60;95.60;;;;;;5107001;28;20024;-70
2022/01/22 08:52:35;;;;;;;0.77;0.50;;;9.60;95.70;;;;;;5107694;28;20043;-68
2022/01/22 08:55:06;;;;;;;4.20;0.73;;;9.60;95.60;;;;;;5104222;28;20032;-68
2022/01/22 08:57:32;;;;;;;1.83;0.52;;;9.60;95.60;;;;;;5105226;28;20024;-68
2022/01/22 09:00:06;;;;;;;1.38;0.68;;;9.60;95.50;;;;;;5080698;28;20027;-68
2022/01/22 09:02:35;;;;;;;3.75;0.63;;;9.60;95.50;;;;;;5099355;28;20023;-68
2022/01/22 09:05:37;;;;;;;0.57;0.57;;;9.60;95.50;;;;;;5062369;28;20578;-68
2022/01/22 09:08:26;;;;;;;2.00;0.65;;;9.60;95.60;;;;;;5063241;28;20439;-68
2022/01/22 09:11:08;;;;;;;3.83;0.70;;;9.60;95.60;;;;;;5105652;28;20426;-66
2022/01/22 09:14:11;;;;;;;6.50;0.82;;;9.60;95.60;;;;;;5072108;28;20077;-69
2022/01/22 09:16:44;;;;;;;8.27;1.05;;;9.60;95.50;;;;;;5082128;28;20491;-68
2022/01/22 09:19:11;;;;;;;1.80;0.80;;;9.60;95.50;;;;;;5069503;28;20821;-68
2022/01/22 09:21:44;;;;;;;7.70;1.27;;;9.60;95.50;;;;;;5083160;28;20028;-68
2022/01/22 09:24:11;;;;;;;3.85;0.85;;;9.60;95.60;;;;;;5104263;28;20094;-68
2022/01/22 09:26:38;;;;;;;10.88;1.23;;;9.60;95.60;;;;;;5078606;28;20024;-68
2022/01/22 09:29:04;;;;;;;4.38;0.65;;;9.60;95.60;;;;;;5091794;28;20035;-68
2022/01/22 09:31:33;;;;;;;3.75;0.63;;;9.60;95.60;;;;;;5089320;28;20024;-68
2022/01/22 09:34:02;;;;;;;7.55;1.00;;;9.60;95.60;;;;;;5078300;28;20074;-68
2022/01/22 09:36:50;;;;;;;4.18;0.80;;;9.60;95.60;;;;;;5096507;28;20391;-68
2022/01/22 09:39:34;;;;;;;4.93;1.15;;;9.70;95.50;;;;;;5105642;28;20038;-68
2022/01/22 09:42:18;;;;;;;3.60;0.47;;;9.70;95.50;;;;;;5110507;28;20031;-68
2022/01/22 09:44:55;;;;;;;9.45;1.17;;;9.70;95.50;;;;;;5105499;28;20027;-68
2022/01/22 09:47:45;;;;;;;7.88;1.30;;;9.70;95.50;;;;;;5091283;28;20081;-68
2022/01/22 09:50:35;;;;;;;3.25;0.98;;;9.70;95.40;;;;;;5072577;28;20024;-68
2022/01/22 09:53:19;;;;;;;6.60;1.70;;;9.80;95.40;;;;;;5091786;28;20088;-68
2022/01/22 09:56:18;;;;;;;5.35;1.33;;;9.80;95.40;;;;;;5095436;28;20131;-68
2022/01/22 09:59:03;;;;;;;4.13;0.73;;;9.80;95.40;;;;;;5084724;28;20368;-68
2022/01/22 10:02:14;;;;;;;4.32;1.25;;;9.80;95.40;;;;;;5091351;28;20395;-68
2022/01/22 10:04:42;;;;;;;5.30;0.93;;;9.80;95.40;;;;;;5090304;28;20028;-68
2022/01/22 10:07:27;;;;;;;3.45;1.02;;;9.90;95.40;;;;;;5079744;28;20037;-68
2022/01/22 10:10:13;;;;;;;5.45;1.08;;;9.90;95.30;;;;;;5090739;28;20044;-68
2022/01/22 10:12:53;;;;;;;7.38;1.30;;;9.90;95.30;;;;;;5084198;28;20523;-68
2022/01/22 10:15:39;;;;;;;10.15;1.38;;;9.90;95.30;;;;;;5094676;28;20101;-68
2022/01/22 10:18:19;;;;;;;6.63;1.27;;;9.90;95.30;;;;;;5096280;28;20118;-68
2022/01/22 10:20:45;;;;;;;8.27;1.70;;;9.90;95.20;;;;;;5107353;28;20038;-68
2022/01/22 10:23:26;;;;;;;7.38;1.05;;;9.90;95.20;;;;;;5101426;28;20040;-68
2022/01/22 10:26:01;;;;;;;18.85;1.63;;;9.90;95.20;;;;;;5097981;28;20028;-68
2022/01/22 10:28:29;;;;;;;3.80;1.02;;;10.00;95.30;;;;;;5112425;28;20027;-67
2022/01/22 10:31:08;;;;;;;8.27;2.10;;;10.00;95.20;;;;;;5095845;28;20027;-68
2022/01/22 10:34:18;;;;;;;15.43;1.77;;;10.10;95.20;;;;;;5083189;28;20042;-68
2022/01/22 10:37:04;;;;;;;7.03;1.15;;;10.10;95.00;;;;;;5061973;28;20361;-69
2022/01/22 10:39:43;;;;;;;8.15;1.08;;;10.10;95.00;;;;;;5102054;28;20394;-70
2022/01/22 10:42:23;;;;;;;16.73;1.63;;;10.10;94.90;;;;;;5106653;28;20031;-70
2022/01/22 10:44:50;;;;;;;8.10;1.17;;;10.20;94.90;;;;;;5105566;28;20418;-66
2022/01/22 10:47:26;;;;;;;8.25;1.15;;;10.10;94.80;;;;;;5112015;28;20024;-66
2022/01/22 10:49:51;;;;;;;13.20;1.50;;;10.20;94.70;;;;;;5105517;28;20029;-66
2022/01/22 10:52:20;;;;;;;5.55;1.20;;;10.20;94.60;;;;;;5105854;27;20494;-65
2022/01/22 10:54:59;;;;;;;4.05;1.15;;;10.20;94.60;;;;;;5110601;28;20041;-66
2022/01/22 10:57:25;;;;;;;5.80;1.15;;;10.20;94.60;;;;;;5091359;28;20024;-66
2022/01/22 10:59:53;;;;;;;3.70;1.08;;;10.20;94.60;;;;;;5106258;28;20038;-66
2022/01/22 11:02:35;;;;;;;5.00;1.02;;;10.20;94.60;;;;;;5096598;28;20047;-66
2022/01/22 11:05:00;;;;;;;4.15;1.10;;;10.20;94.60;;;;;;5093426;28;20028;-66
2022/01/22 11:07:26;;;;;;;3.50;1.00;;;10.20;94.60;;;;;;5094637;28;20093;-66
2022/01/22 11:09:52;;;;;;;4.90;0.90;;;10.20;94.60;;;;;;5107498;28;20485;-66
2022/01/22 11:12:18;;;;;;;3.92;1.02;;;10.30;94.60;;;;;;5093357;28;20063;-66
2022/01/22 11:14:45;;;;;;;6.93;1.17;;;10.30;94.50;;;;;;5095562;28;20495;-66
2022/01/22 11:17:11;;;;;;;3.75;0.82;;;10.30;94.40;;;;;;5098531;28;20056;-66
2022/01/22 11:19:38;;;;;;;7.07;1.10;;;10.30;94.40;;;;;;5099281;28;20111;-66
2022/01/22 11:22:08;;;;;;;7.75;1.90;;;10.30;94.40;;;;;;5103370;28;20111;-73
2022/01/22 11:24:42;;;;;;;15.00;1.77;;;10.30;94.40;;;;;;5107596;28;20031;-66
2022/01/22 11:27:10;;;;;;;3.72;1.33;;;10.40;94.40;;;;;;5113721;28;20031;-66
2022/01/22 11:29:55;;;;;;;3.03;1.08;;;10.30;94.40;;;;;;5105123;28;20032;-66
2022/01/22 11:32:34;;;;;;;8.00;1.83;;;10.30;94.40;;;;;;5081902;28;20150;-68
2022/01/22 11:35:04;;;;;;;15.05;1.30;;;10.40;94.40;;;;;;5083773;28;20046;-67
2022/01/22 11:37:36;;;;;;;2.53;0.98;;;10.30;94.40;;;;;;5097124;28;20022;-66
2022/01/22 11:40:23;;;;;;;5.32;0.93;;;10.40;94.40;;;;;;5102296;28;20138;-68
2022/01/22 11:43:05;;;;;;;5.10;1.00;;;10.40;94.40;;;;;;5094127;28;20123;-65
2022/01/22 11:45:38;;;;;;;2.22;0.80;;;10.40;94.40;;;;;;5111816;28;20557;-66
2022/01/22 11:48:26;;;;;;;9.13;1.13;;;10.40;94.50;;;;;;5109241;28;20043;-67
2022/01/22 11:51:26;;;;;;;4.20;1.33;;;10.40;94.50;;;;;;5100675;28;20090;-65
2022/01/22 11:53:57;;;;;;;10.52;1.60;;;10.40;94.50;;;;;;5105804;28;20750;-67
2022/01/22 11:56:25;;;;;;;7.15;1.40;;;10.40;94.50;;;;;;5109195;28;20032;-68
2022/01/22 11:59:14;;;;;;;8.70;1.55;;;10.40;94.50;;;;;;5109722;28;20019;-68
2022/01/22 12:01:50;;;;;;;6.13;1.20;;;10.50;94.60;;;;;;5096561;28;20489;-65
2022/01/22 12:04:17;;;;;;;2.67;0.98;;;10.50;94.60;;;;;;5095041;28;20483;-67
2022/01/22 12:07:02;;;;;;;6.43;1.40;;;10.40;94.50;;;;;;5101626;28;20035;-67
2022/01/22 12:15:08;;;;;;;6.40;1.10;;;10.50;94.60;;;;;;5102362;28;20036;-70
2022/01/22 12:23:33;;;;;;;9.70;1.80;;;10.50;94.70;;;;;;5064032;28;20039;-68
2022/01/22 12:26:05;;;;;;;8.55;1.50;;;10.50;94.70;;;;;;5095235;28;20467;-69
2022/01/22 12:28:44;;;;;;;7.53;1.52;;;10.50;94.70;;;;;;5105036;28;20126;-68
2022/01/22 12:31:15;;;;;;;6.20;1.27;;;10.40;94.70;;;;;;5095234;28;20067;-68
2022/01/22 12:33:41;;;;;;;7.22;1.52;;;10.50;94.80;;;;;;5109314;28;20126;-67
2022/01/22 12:36:13;;;;;;;4.47;1.50;;;10.50;94.80;;;;;;5102535;28;20099;-67
2022/01/22 12:38:48;;;;;;;7.95;2.00;;;10.50;94.80;;;;;;5111167;28;20391;-67
2022/01/22 12:41:48;;;;;;;6.43;1.70;;;10.50;94.80;;;;;;5096917;28;20031;-67
2022/01/22 12:44:31;;;;;;;1.65;0.70;;;10.50;94.80;;;;;;5103294;28;20028;-67
2022/01/22 12:47:00;;;;;;;8.20;2.03;;;10.50;94.80;;;;;;5109165;28;20031;-67
2022/01/22 12:49:28;;;;;;;8.35;1.90;;;10.50;94.80;;;;;;5101043;28;20269;-68
2022/01/22 12:52:04;;;;;;;2.00;1.17;;;10.50;94.80;;;;;;5105435;28;20126;-67
2022/01/22 12:54:42;;;;;;;5.07;2.10;;;10.40;94.80;;;;;;5103812;28;20043;-67
2022/01/22 12:57:10;;;;;;;13.82;2.38;;;10.50;94.90;;;;;;5102449;28;20016;-67
2022/01/22 13:00:02;;;;;;;8.43;1.50;;;10.40;94.90;;;;;;5108355;28;20066;-67
2022/01/22 13:02:47;;;;;;;11.18;2.03;;;10.50;94.90;;;;;;5105809;28;20522;-67
2022/01/22 13:05:15;;;;;;;2.67;1.40;;;10.50;94.90;;;;;;5104163;28;20089;-69
2022/01/22 13:08:07;;;;;;;13.23;2.05;;;10.40;94.90;;;;;;5108055;28;20546;-67
2022/01/22 13:11:07;;;;;;;8.38;2.05;;;10.40;95.00;;;;;;5103940;28;20028;-67
2022/01/22 13:13:35;;;;;;;9.48;2.00;;;10.40;95.00;;;;;;5104351;28;20044;-66
2022/01/22 13:16:09;;;;;;;2.60;0.85;;;10.40;95.00;;;;;;5095780;28;20114;-67
2022/01/22 13:18:58;;;;;;;9.63;2.35;;;10.40;95.00;;;;;;5102604;28;20447;-67
2022/01/22 13:21:27;;;;;;;13.75;2.47;;;10.40;95.00;;;;;;5100107;28;20112;-67
2022/01/22 13:24:02;;;;;;;13.00;1.95;;;10.40;95.00;;;;;;5104181;28;20036;-67
2022/01/22 13:26:45;;;;;;;5.53;1.90;;;10.50;95.00;;;;;;5101224;28;20027;-67
2022/01/22 13:29:19;;;;;;;;;;;10.50;94.90;;;;;;5106854;28;20035;-67
2022/01/22 13:32:13;;;;;;;8.75;1.90;;;10.40;94.90;;;;;;5108499;28;20302;-67
2022/01/22 13:40:42;;;;;;;15.27;2.50;;;10.40;94.90;;;;;;5099861;28;20481;-67
2022/01/22 13:49:06;;;;;;;14.10;2.13;;;10.40;95.00;;;;;;5094213;28;20081;-67
2022/01/22 13:51:33;;;;;;;5.82;1.85;;;10.40;94.90;;;;;;5088947;28;20040;-69
2022/01/22 13:54:00;;;;;;;13.80;2.55;;;10.40;95.00;;;;;;5091304;28;20032;-70
2022/01/22 13:56:49;;;;;;;7.63;1.98;;;10.40;95.30;;;;;;5111971;28;20027;-70
2022/01/22 13:59:16;;;;;;;12.57;2.67;;;10.40;95.00;;;;;;5103972;28;20556;-71
2022/01/22 14:04:17;;;;;;;7.70;1.77;;;10.40;94.90;;;;;;5086502;28;20079;-70
2022/01/22 14:06:43;;;;;;;7.68;1.50;;;10.40;94.90;;;;;;5086172;28;20067;-68
2022/01/22 14:09:19;;;;;;;5.88;1.30;;;10.40;94.90;;;;;;5102433;28;20036;-68
2022/01/22 14:12:04;;;;;;;5.30;1.70;;;10.40;95.00;;;;;;5112440;28;20047;-67
2022/01/22 14:14:49;;;;;;;8.85;1.88;;;10.40;94.90;;;;;;5105826;28;20497;-67
2022/01/22 14:17:17;;;;;;;7.93;2.50;;;10.40;94.90;;;;;;5099411;28;20373;-67
2022/01/22 14:19:43;;;;;;;7.82;1.52;;;10.40;94.80;;;;;;5108202;28;20043;-68
2022/01/22 14:22:09;;;;;;;8.65;1.27;;;10.40;94.90;;;;;;5110141;28;20061;-68
2022/01/22 14:24:34;;;;;;;8.50;1.85;;;10.40;95.00;;;;;;5112189;28;20451;-68
2022/01/22 14:27:00;;;;;;;4.18;1.00;;;10.40;94.90;;;;;;5103403;28;20407;-68
2022/01/22 14:29:25;;;;;;;8.27;1.45;;;10.30;94.90;;;;;;5102057;28;20110;-68
2022/01/22 14:31:53;;;;;;;4.60;1.20;;;10.30;94.90;;;;;;5107488;28;20023;-69
2022/01/22 14:34:38;;;;;;;2.28;0.47;;;10.30;95.00;;;;;;5099086;28;20036;-69
2022/01/22 14:37:06;;;;;;;0.45;0.45;;;10.30;95.10;;;;;;5107056;28;20510;-70
2022/01/22 14:45:21;;;;;;;7.03;1.38;;;10.20;95.20;;;;;;5101355;28;20030;-69
2022/01/22 14:47:52;;;;;;;6.78;1.13;;;10.20;95.20;;;;;;5092998;28;20122;-69
2022/01/22 14:50:18;;;;;;;2.00;0.82;;;10.10;95.60;;;;;;5106749;28;20032;-68
2022/01/22 14:52:47;;;;;;;1.05;0.50;;;10.10;95.30;;;;;;5092573;28;20510;-69
2022/01/22 14:55:13;;;;;;;0.80;0.68;;;10.20;95.40;;;;;;5109670;28;20039;-68
2022/01/22 14:57:40;;;;;;;6.20;1.20;;;10.10;95.40;;;;;;5092498;28;20042;-69
2022/01/22 15:00:10;;;;;;;3.50;0.80;;;10.10;95.40;;;;;;5108837;28;20035;-67
2022/01/22 15:02:36;;;;;;;8.05;1.17;;;10.10;95.40;;;;;;5111243;28;20042;-68
2022/01/22 15:05:09;;;;;;;2.72;0.85;;;10.10;95.30;;;;;;5102394;28;20023;-68
2022/01/22 15:07:35;;;;;;;3.05;1.00;;;10.10;95.30;;;;;;5108751;28;20070;-68
2022/01/22 15:10:02;;;;;;;0.60;0.60;;;10.10;95.20;;;;;;5109629;28;20031;-67
2022/01/22 15:12:28;;;;;;;2.53;0.70;;;10.10;95.50;;;;;;5104999;28;20474;-68
2022/01/22 15:14:54;;;;;;;5.32;1.33;;;10.20;95.20;;;;;;5108626;28;20035;-68
2022/01/22 15:19:47;;;;;;;7.05;1.45;;;10.20;95.10;;;;;;5105539;28;20035;-69
2022/01/22 15:22:17;;;;;;;8.27;1.33;;;10.20;95.20;;;;;;5104313;27;20023;-68
2022/01/22 15:24:45;;;;;;;5.78;1.23;;;10.20;95.20;;;;;;5099708;28;20086;-68
2022/01/22 15:27:14;;;;;;;10.18;1.70;;;10.10;95.00;;;;;;5108791;28;20035;-68
2022/01/22 15:32:34;;;;;;;3.05;1.13;;;10.20;94.80;;;;;;5104773;28;20046;-66